x

9449880 - Friday Harbor, Wa (frdw1) Weather Station

8:36pm - Mon 18th Jun 2018 All times are PDT. -7 hours from GMT.

  • Wind
    5mph, 7mph gusts
  • Sea Temp 51°f
  • Air Temp 61°f
  • Sea Pressure 1012.7mb
  • 9449880 - Friday Harbor, Wa
  • 9449880 - Friday Harbor, Wa

More Historic Weather Station data

Upgrade to MSW Pro to gain access to the past 30 days of data for over 8000 Wavebouys and Weather Stations around the globe.

Join

Comparision Forecast

View Surf forecast
   
Mon 06/18 8:36pm 5 7 mph 1012.7mb 51f 61f
8:30pm 5 8 mph 1012.6mb 51f 61f
8:24pm 7 8 mph 1012.6mb 51f 61f
8:18pm 6 8 mph 1012.6mb 51f 62f
8:12pm 7 8 mph 1012.6mb 51f 62f
8:06pm 6 7 mph 1012.6mb 51f 63f
8:00pm 8 8 mph 1012.5mb 51f 63f
7:36pm 7 7 mph 1012.4mb 52f 64f
7:30pm 5 8 mph 1012.4mb 51f 65f
7:24pm 5 7 mph 1012.3mb 51f 65f
7:18pm 7 8 mph 1012.3mb 51f 65f
7:12pm 6 8 mph 1012.3mb 52f 64f
7:06pm 7 8 mph 1012.3mb 52f 65f
7:00pm 8 9 mph 1012.3mb 52f 65f
6:36pm 6 7 mph 1012.3mb 52f 67f
6:30pm 5 6 mph 1012.3mb 53f 67f
6:24pm 3 5 mph 1012.3mb 53f 68f
6:18pm 2 3 mph 1012.3mb 53f 67f
6:12pm 3 6 mph 1012.3mb 54f 67f
6:06pm 3 8 mph 1012.3mb 54f 65f
6:00pm 5 7 mph 1012.3mb 54f 66f
5:36pm 5 14 mph 1012.4mb 53f 73f
5:30pm 14 15 mph 1012.4mb 53f 74f
5:24pm 11 14 mph 1012.5mb 53f 72f
5:18pm 10 13 mph 1012.5mb 54f 72f
5:12pm 11 14 mph 1012.6mb 54f 73f
5:06pm 8 10 mph 1012.6mb 54f 73f
5:00pm 8 10 mph 1012.6mb 54f 74f
4:36pm 6 8 mph 1012.8mb 54f 75f
4:30pm 7 8 mph 1012.7mb 54f 76f
4:24pm 7 9 mph 1012.8mb 54f 75f
4:18pm 7 10 mph 1012.8mb 54f 75f
4:12pm 9 11 mph 1012.9mb 54f 74f
4:06pm 7 9 mph 1012.9mb 53f 75f
4:00pm 7 8 mph 1012.9mb 53f 75f
3:36pm 2 6 mph 1012.9mb 53f 73f
3:30pm 2 6 mph 1012.9mb 53f 71f
3:24pm 5 6 mph 1012.8mb 54f 68f
3:18pm 5 6 mph 1012.8mb 54f 69f
3:12pm 6 7 mph 1012.8mb 54f 69f
3:06pm 7 8 mph 1012.8mb 54f 69f
3:00pm 3 6 mph 1012.8mb 55f 72f
2:36pm  -  1 mph 1012.9mb 55f 74f
2:30pm  -  1 mph 1012.9mb 55f 73f
2:24pm  -  2 mph 1013mb 55f 74f
2:18pm 1 3 mph 1013mb 54f 74f
2:12pm 1 3 mph 1013mb 54f 73f
2:06pm 2 3 mph 1013mb 54f 71f
2:00pm 2 3 mph 1013.1mb 54f 69f
1:36pm 3 3 mph 1013.1mb 53f 69f
1:30pm 3 5 mph 1013.2mb 53f 72f
1:24pm 2 3 mph 1013.2mb 53f 71f
1:18pm 2 3 mph 1013.2mb 53f 73f
1:12pm 2 3 mph 1013.2mb 53f 71f
1:06pm 3 3 mph 1013.2mb 53f 69f
1:00pm 1 3 mph 1013.2mb 53f 71f
12:36pm 6 7 mph 1013.4mb 53f 71f
12:30pm 3 5 mph 1013.5mb 53f 72f
12:24pm 2 5 mph 1013.5mb 53f 72f
12:18pm 2 6 mph 1013.5mb 53f 75f
12:12pm 6 9 mph 1013.6mb 53f 74f
12:06pm 6 10 mph 1013.6mb 53f 75f
12:00pm 7 10 mph 1013.6mb 53f 74f
11:36am 8 10 mph 1013.6mb 53f 73f
11:30am 6 9 mph 1013.7mb 53f 74f
11:24am 6 10 mph 1013.7mb 53f 73f
11:18am 6 10 mph 1013.7mb 53f 73f
11:12am 7 9 mph 1013.7mb 53f 73f
11:06am 3 10 mph 1013.7mb 53f 73f
11:00am 7 9 mph 1013.8mb 53f 73f
10:36am 1 3 mph 1014mb 52f 71f
10:30am 1 3 mph 1014mb 52f 69f
10:24am 1 2 mph 1014.1mb 52f 70f
10:18am 1 3 mph 1014.1mb 53f 69f
10:12am 2 3 mph 1014.1mb 53f 66f
10:06am 2 3 mph 1014.1mb 53f 67f
10:00am 3 6 mph 1014.2mb 52f 63f
9:36am 6 7 mph 1014.1mb 52f 66f
9:30am 6 7 mph 1014.1mb 52f 67f
9:24am 7 9 mph 1014mb 52f 66f
9:18am 7 9 mph 1014mb 52f 70f
9:12am 8 11 mph 1014mb 52f 71f
9:06am 7 11 mph 1014mb 52f 71f
9:00am 5 11 mph 1014mb 52f 71f
8:36am 5 10 mph 1013.9mb 52f 70f
8:30am 8 11 mph 1013.9mb 52f 69f
8:24am 7 11 mph 1013.8mb 52f 69f
8:18am 6 8 mph 1013.8mb 52f 70f
8:12am 3 7 mph 1013.8mb 52f 70f
8:06am 3 7 mph 1013.8mb 52f 70f
8:00am 2 6 mph 1013.7mb 53f 70f
7:36am 2 3 mph 1013.7mb 52f 64f
7:30am 1 2 mph 1013.6mb 52f 65f
7:24am 2 3 mph 1013.7mb 52f 63f
7:18am 1 3 mph 1013.6mb 52f 63f
7:12am  -  1 mph 1013.6mb 52f 66f
7:06am  -  1 mph 1013.6mb 52f 65f
7:00am  -  2 mph 1013.6mb 53f 64f
6:36am  -  2 mph 1013.5mb 53f 62f
6:30am 1 2 mph 1013.4mb 53f 59f
6:24am  -  2 mph 1013.3mb 53f 58f
6:18am 2 3 mph 1013.3mb 53f 57f
6:12am 2 2 mph 1013.2mb 53f 58f
6:06am 1 2 mph 1013.2mb 53f 60f
6:00am 1 2 mph 1013.2mb 53f 58f
5:36am  -  1 mph 1013mb 53f 56f
5:30am  -  2 mph 1013mb 53f 55f
5:24am 1 2 mph 1012.9mb 53f 55f
5:18am 1 2 mph 1012.7mb 53f 55f
5:12am 1 3 mph 1012.7mb 53f 56f
5:06am 2 6 mph 1012.7mb 53f 56f
5:00am  -  3 mph 1012.5mb 53f 58f
4:36am 2 3 mph 1012.5mb 53f 56f
4:30am 3 5 mph 1012.5mb 53f 56f
4:24am  -  0 mph 1012.5mb 53f 56f
4:18am  -  3 mph 1012.5mb 53f 56f
4:12am 2 3 mph 1012.4mb 53f 57f
4:06am  -  1 mph 1012.4mb 53f 58f
4:00am  -  1 mph 1012.4mb 53f 58f
3:36am  -  3 mph 1012.2mb 53f 59f
3:30am 2 3 mph 1012.2mb 53f 58f
3:24am 2 3 mph 1012.3mb 53f 56f
3:18am 2 3 mph 1012.3mb 53f 56f
3:12am 2 2 mph 1012.3mb 53f 56f
3:06am  -  1 mph 1012.3mb 53f 56f
3:00am  -  1 mph 1012.3mb 53f 56f
2:36am  -  1 mph 1011.9mb 53f 57f
2:30am  -  2 mph 1011.8mb 53f 58f
2:24am 2 2 mph 1011.8mb 53f 57f
2:18am 1 2 mph 1011.9mb 53f 58f
2:12am  -  3 mph 1011.9mb 53f 58f
2:06am 2 5 mph 1011.8mb 53f 58f
2:00am  -  1 mph 1011.9mb 53f 58f
1:36am  -  2 mph 1011.8mb 53f 60f
1:30am 1 2 mph 1011.6mb 53f 60f
1:24am 3 5 mph 1011.5mb 53f 59f
1:18am 2 3 mph 1011.5mb 53f 59f
1:12am 2 3 mph 1011.5mb 53f 59f
1:06am 2 3 mph 1011.5mb 53f 59f
1:00am 3 5 mph 1011.3mb 53f 59f
12:36am  -  2 mph 1011.1mb 53f 57f
12:30am 2 2 mph 1011.2mb 52f 57f
12:24am 1 2 mph 1011.1mb 52f 58f
12:18am 1 2 mph 1011mb 52f 61f
12:12am 1 3 mph 1011mb 52f 61f
12:06am 2 3 mph 1010.9mb 52f 61f
12:00am 1 2 mph 1010.9mb 52f 61f
Sun 06/17 11:36pm 2 3 mph 1010.8mb 53f 60f
11:30pm 1 2 mph 1010.8mb 53f 60f
11:24pm 3 3 mph 1010.8mb 53f 59f
11:18pm 2 2 mph 1010.8mb 53f 60f
11:12pm  -  1 mph 1010.8mb 52f 61f
11:06pm  -  1 mph 1010.8mb 52f 61f
11:00pm 1 2 mph 1010.9mb 52f 61f
10:36pm  -  1 mph 1010.8mb 52f 61f
10:30pm  -  1 mph 1010.8mb 52f 61f
10:24pm  -  mph 1010.8mb 52f -
10:18pm  -  2 mph 1010.8mb 52f 61f
10:12pm 1 2 mph 1010.8mb 52f 62f
10:06pm  -  1 mph 1010.7mb 52f 61f
10:00pm  -  1 mph 1010.7mb 52f 63f
9:36pm 2 2 mph 1010.5mb 51f 64f
9:30pm  -  1 mph 1010.5mb 51f 64f
9:24pm  -  2 mph 1010.5mb 51f 61f
9:18pm  -  1 mph 1010.5mb 51f 60f
9:12pm  -  3 mph 1010.5mb 51f 61f
9:06pm 3 5 mph 1010.5mb 51f 60f
9:00pm 1 2 mph 1010.4mb 51f 63f
8:36pm 2 3 mph 1010.5mb 51f 64f
8:30pm  -  1 mph 1010.5mb 51f 65f
8:24pm  -  1 mph 1010.5mb 51f 67f
8:18pm  -  2 mph 1010.5mb 51f 67f
8:12pm  -  2 mph 1010.5mb 51f 66f
8:06pm  -  2 mph 1010.5mb 51f 64f
8:00pm 2 2 mph 1010.5mb 51f 64f
7:36pm 2 3 mph 1010.5mb 51f 65f
7:30pm 2 2 mph 1010.4mb 51f 67f
7:24pm 1 1 mph 1010.3mb 51f 72f
7:18pm  -  1 mph 1010.4mb 51f 74f
7:12pm  -  1 mph 1010.4mb 51f 74f
7:06pm  -  2 mph 1010.5mb 51f 74f
7:00pm 1 3 mph 1010.5mb 51f 73f
6:36pm 1 5 mph 1010.5mb 51f 68f
6:30pm 2 3 mph 1010.5mb 51f 65f
6:24pm 2 3 mph 1010.5mb 52f 67f
6:18pm 1 5 mph 1010.5mb 52f 70f
6:12pm 2 6 mph 1010.5mb 52f 76f
6:06pm 3 5 mph 1010.6mb 52f 71f
6:00pm 1 3 mph 1010.6mb 52f 72f
5:36pm 1 6 mph 1010.8mb 52f 76f
5:30pm 5 6 mph 1010.8mb 52f 78f
5:24pm 6 9 mph 1010.9mb 53f 78f
5:18pm 7 9 mph 1010.9mb 53f 78f
5:12pm 7 10 mph 1010.9mb 53f 78f
5:06pm 5 9 mph 1011mb 53f 78f
5:00pm 6 9 mph 1011mb 53f 77f
4:36pm 5 9 mph 1011.2mb 53f 76f
4:30pm 6 9 mph 1011.1mb 53f 76f
4:24pm 7 9 mph 1011.1mb 53f 76f
4:18pm 5 7 mph 1011.2mb 53f 76f
4:12pm 6 8 mph 1011.3mb 53f 76f
4:06pm 5 8 mph 1011.3mb 53f 76f
4:00pm 6 10 mph 1011.5mb 53f 74f
3:36pm 6 9 mph 1011.6mb 53f 74f
3:30pm 5 9 mph 1011.6mb 53f 74f
3:24pm 5 9 mph 1011.7mb 53f 74f
3:18pm 5 10 mph 1011.7mb 53f 74f
3:12pm 7 11 mph 1011.7mb 53f 74f
3:06pm 6 10 mph 1011.8mb 53f 75f
3:00pm 7 10 mph 1011.8mb 53f 75f
2:36pm 2 7 mph 1011.9mb 53f 75f
2:30pm 3 9 mph 1011.9mb 53f 75f
2:24pm 2 8 mph 1011.9mb 53f 76f
2:18pm 7 9 mph 1012.1mb 53f 75f
2:12pm 2 5 mph 1012.1mb 53f 76f
2:06pm 2 6 mph 1012.2mb 53f 75f
2:00pm 1 5 mph 1012.3mb 53f 74f
1:36pm 3 8 mph 1012.6mb 53f 73f
1:30pm 3 6 mph 1012.7mb 53f 73f
1:24pm 3 9 mph 1012.6mb 53f 74f
1:18pm 5 8 mph 1012.7mb 53f 74f
1:12pm 2 6 mph 1012.7mb 53f 73f
1:06pm 3 6 mph 1012.8mb 53f 73f
1:00pm 3 7 mph 1012.9mb 53f 73f
12:36pm 5 8 mph 1013.3mb 53f 71f
12:30pm 6 10 mph 1013.3mb 53f 70f
12:24pm 5 10 mph 1013.4mb 53f 71f
12:18pm 3 7 mph 1013.4mb 53f 70f
12:12pm 2 8 mph 1013.5mb 53f 71f
12:06pm 5 10 mph 1013.6mb 53f 71f
12:00pm 5 8 mph 1013.6mb 53f 70f
11:36am 2 8 mph 1013.7mb 52f 69f
11:30am 5 10 mph 1013.7mb 52f 69f
11:24am 2 6 mph 1013.9mb 52f 69f
11:18am  -  3 mph 1013.9mb 52f 70f
11:12am 2 8 mph 1014mb 52f 69f
11:06am 2 6 mph 1014.1mb 53f 69f
11:00am 2 8 mph 1014.1mb 52f 69f
10:36am 2 8 mph 1014.3mb 52f 69f
10:30am 5 8 mph 1014.3mb 51f 69f
10:24am 2 7 mph 1014.4mb 51f 69f
10:18am 5 9 mph 1014.4mb 51f 68f
10:12am 3 7 mph 1014.5mb 51f 68f
10:06am 2 7 mph 1014.5mb 51f 68f
10:00am 3 8 mph 1014.5mb 52f 68f
9:36am 3 8 mph 1014.7mb 52f 69f
9:30am 6 10 mph 1014.7mb 52f 68f
9:24am 3 8 mph 1014.7mb 52f 68f
9:18am 2 6 mph 1014.7mb 52f 69f
9:12am 5 7 mph 1014.8mb 52f 68f
9:06am 2 6 mph 1014.8mb 52f 68f
9:00am  -  3 mph 1014.9mb 52f 67f
8:36am 2 6 mph 1015mb 51f 68f
8:30am 3 6 mph 1015mb 51f 67f
8:24am 2 8 mph 1015mb 51f 67f
8:18am 3 6 mph 1015mb 51f 66f
8:12am 5 8 mph 1015.1mb 51f 67f
8:06am 3 7 mph 1015.1mb 51f 66f
8:00am 1 3 mph 1015.1mb 51f 66f
7:36am  -  2 mph 1015mb 51f 63f
7:30am 2 5 mph 1015mb 51f 60f
7:24am 2 3 mph 1015mb 51f 58f
7:18am 1 3 mph 1015mb 51f 57f
7:12am 2 5 mph 1015mb 51f 56f
7:06am 2 3 mph 1015mb 51f 56f
7:00am 2 3 mph 1015mb 51f 56f
6:36am  -  1 mph 1015mb 51f 60f
6:30am  -  1 mph 1015mb 51f 58f
6:24am  -  2 mph 1015mb 51f 57f
6:18am  -  1 mph 1015mb 51f 59f
6:12am  -  1 mph 1015mb 51f 58f
6:06am  -  0 mph 1014.9mb 51f 57f
6:00am  -  2 mph 1014.9mb 51f 56f
5:36am 1 3 mph 1014.9mb 51f 53f
5:30am 2 6 mph 1014.9mb 51f 52f
5:24am 2 2 mph 1014.9mb 51f 52f
5:18am 1 2 mph 1014.8mb 51f 53f
5:12am  -  1 mph 1014.8mb 51f 53f
5:06am  -  2 mph 1014.7mb 51f 53f
5:00am 2 2 mph 1014.7mb 51f 53f
4:36am  -  1 mph 1014.7mb 51f 53f
4:30am  -  2 mph 1014.7mb 51f 53f
4:24am 2 3 mph 1014.7mb 51f 53f
4:18am  -  2 mph 1014.6mb 51f 54f
4:12am 1 2 mph 1014.7mb 51f 55f
4:06am  -  1 mph 1014.7mb 51f 55f
4:00am  -  2 mph 1014.7mb 51f 55f
3:36am 3 3 mph 1014.6mb 51f 55f
3:30am 2 2 mph 1014.6mb 51f 55f
3:24am  -  2 mph 1014.6mb 51f 54f
3:18am  -  3 mph 1014.6mb 51f 54f
3:12am 2 5 mph 1014.6mb 51f 54f
3:06am  -  2 mph 1014.6mb 51f 56f
3:00am 2 2 mph 1014.5mb 51f 56f
2:36am 1 5 mph 1014.3mb 51f 56f
2:30am 1 3 mph 1014.3mb 51f 57f
2:24am 2 5 mph 1014.3mb 51f 56f
2:18am 3 3 mph 1014.2mb 51f 55f
2:12am 1 3 mph 1014.2mb 51f 55f
2:06am 1 2 mph 1014.2mb 51f 56f
2:00am  -  3 mph 1014.2mb 51f 56f
1:36am 3 3 mph 1014.2mb 51f 56f
1:30am 2 3 mph 1014.2mb 51f 56f
1:24am 2 3 mph 1014.2mb 51f 56f
1:18am 2 3 mph 1014.1mb 51f 57f
1:12am  -  1 mph 1014.2mb 51f 58f
1:06am  -  1 mph 1014.2mb 51f 58f
1:00am 1 2 mph 1014.2mb 51f 57f
12:36am  -  2 mph 1014.2mb 51f 60f
12:30am 1 3 mph 1014.2mb 51f 59f
12:24am 3 3 mph 1014.2mb 51f 59f
12:18am 2 3 mph 1014.2mb 51f 59f
12:12am 1 3 mph 1014.2mb 51f 58f
12:06am 2 3 mph 1014.1mb 51f 57f
12:00am 1 2 mph 1014.1mb 51f 58f
Sat 06/16 11:36pm 1 3 mph 1014.2mb 51f 56f
11:30pm 1 2 mph 1014.1mb 51f 58f
11:24pm 1 3 mph 1014.1mb 51f 58f
11:18pm 2 3 mph 1014mb 51f 58f
11:12pm 3 3 mph 1014mb 51f 59f
11:06pm 1 3 mph 1014mb 51f 58f
11:00pm 2 3 mph 1013.9mb 51f 58f
10:36pm 1 2 mph 1014.1mb 51f 60f
10:30pm 2 3 mph 1014.1mb 51f 61f
10:24pm 1 3 mph 1014.2mb 51f 61f
10:18pm 2 3 mph 1014.2mb 51f 61f
10:12pm 2 2 mph 1014.3mb 51f 61f
10:06pm 1 3 mph 1014.2mb 51f 62f
10:00pm 2 2 mph 1014.1mb 51f 62f
9:36pm 6 8 mph 1014.3mb 51f 63f
9:30pm 5 7 mph 1014.3mb 51f 65f
9:24pm 3 5 mph 1014.3mb 51f 65f
9:18pm  -  5 mph 1014.3mb 51f 61f
9:12pm 3 8 mph 1014.3mb 51f 60f
9:06pm 5 9 mph 1014.2mb 51f 63f
9:00pm 1 5 mph 1014.1mb 51f 66f
8:36pm 3 5 mph 1013.8mb 51f 64f
8:30pm 3 3 mph 1013.7mb 51f 65f
8:24pm 2 3 mph 1013.6mb 51f 64f
8:18pm 2 2 mph 1013.5mb 51f 66f
8:12pm 2 2 mph 1013.5mb 51f 67f
8:06pm  -  2 mph 1013.5mb 51f 70f
8:00pm 1 2 mph 1013.5mb 51f 72f
7:36pm  -  1 mph 1013.6mb 51f 70f
7:30pm  -  1 mph 1013.6mb 51f 69f
7:24pm  -  1 mph 1013.6mb 51f 71f
7:18pm 1 2 mph 1013.6mb 51f 71f
7:12pm 1 5 mph 1013.6mb 51f 71f
7:06pm 2 3 mph 1013.5mb 51f 70f
7:00pm 3 5 mph 1013.5mb 51f 65f
6:36pm 3 3 mph 1013.4mb 51f -
6:30pm 3 3 mph 1013.4mb 51f -
6:24pm 1 5 mph 1013.5mb 51f -
6:18pm 2 7 mph 1013.4mb 51f 74f
6:12pm 6 7 mph 1013.4mb 51f 70f
6:06pm 3 6 mph 1013.4mb 51f 72f
6:00pm 2 6 mph 1013.5mb 51f 72f
5:36pm 5 6 mph 1013.6mb 51f 65f
5:30pm 1 6 mph 1013.6mb 51f 71f
5:24pm 5 6 mph 1013.7mb 51f 73f
5:18pm 3 6 mph 1013.6mb 51f 72f
5:12pm 3 7 mph 1013.6mb 51f 74f
5:06pm 6 9 mph 1013.7mb 51f 74f
5:00pm 6 8 mph 1013.7mb 51f 73f
4:36pm 5 7 mph 1013.8mb 51f 73f
4:30pm 5 10 mph 1013.9mb 51f 73f
4:24pm 2 8 mph 1013.9mb 51f 72f
4:18pm 3 6 mph 1014mb 51f 72f
4:12pm 5 9 mph 1014mb 51f 73f
4:06pm 3 10 mph 1014mb 51f 72f
4:00pm 2 5 mph 1014.1mb 52f 72f
3:36pm 6 10 mph 1014.5mb 52f 71f
3:30pm 6 11 mph 1014.6mb 52f 71f
3:24pm 7 11 mph 1014.7mb 52f 70f
3:18pm 7 11 mph 1014.7mb 52f 70f
3:12pm 5 10 mph 1014.8mb 52f 70f
3:06pm 8 13 mph 1014.8mb 52f 68f
3:00pm 7 13 mph 1014.9mb 52f 69f
2:36pm 3 9 mph 1015.1mb 52f 69f
2:30pm 3 7 mph 1015.1mb 51f 70f
2:24pm 5 10 mph 1015.2mb 51f 70f
2:18pm 5 9 mph 1015.2mb 52f 69f
2:12pm 5 8 mph 1015.2mb 52f 69f
2:06pm 5 9 mph 1015.3mb 52f 69f
2:00pm 6 11 mph 1015.2mb 52f 69f
1:36pm 5 10 mph 1015.5mb 52f 68f
1:30pm 6 14 mph 1015.6mb 52f 67f
1:24pm 5 11 mph 1015.7mb 52f 67f
1:18pm 5 9 mph 1015.7mb 52f 67f
1:12pm 6 10 mph 1015.7mb 52f 66f
1:06pm 5 13 mph 1015.6mb 52f 66f
1:00pm 6 10 mph 1015.6mb 52f 66f
12:36pm 6 13 mph 1015.5mb 51f 65f
12:30pm 7 13 mph 1015.7mb 51f 65f
12:24pm 8 11 mph 1015.7mb 51f 65f
12:18pm 7 10 mph 1015.7mb 51f 64f
12:12pm 2 7 mph 1015.7mb 51f 65f
12:06pm 6 11 mph 1015.6mb 51f 64f
12:00pm 6 9 mph 1015.6mb 51f 64f
11:36am 5 7 mph 1015.8mb 51f 64f
11:30am 3 11 mph 1015.8mb 51f 63f
11:24am 8 11 mph 1015.7mb 51f 63f
11:18am 8 11 mph 1015.7mb 51f 63f
11:12am 5 8 mph 1015.7mb 51f 63f
11:06am 2 7 mph 1015.7mb 51f 63f
11:00am 2 8 mph 1015.7mb 51f 63f
10:36am 5 13 mph 1015.7mb 51f 63f
10:30am 7 10 mph 1015.7mb 51f 62f
10:24am 6 10 mph 1015.7mb 51f 62f
10:18am 6 11 mph 1015.7mb 51f 62f
10:12am 6 14 mph 1015.6mb 51f 62f
10:06am 5 10 mph 1015.7mb 51f 62f
10:00am 5 8 mph 1015.7mb 51f 62f
9:36am 5 10 mph 1015.6mb 51f 61f
9:30am 5 11 mph 1015.6mb 51f 61f
9:24am 6 13 mph 1015.6mb 51f 60f
9:18am 8 11 mph 1015.5mb 51f 60f
9:12am 3 7 mph 1015.5mb 51f 61f
9:06am 3 10 mph 1015.5mb 51f 61f
9:00am 2 8 mph 1015.5mb 51f 61f
8:36am 3 7 mph 1015.4mb 51f 60f
8:30am 3 11 mph 1015.3mb 51f 60f
8:24am 5 9 mph 1015.2mb 51f 60f
8:18am 5 10 mph 1015.2mb 51f 60f
8:12am 5 11 mph 1015.1mb 51f 60f
8:06am 5 7 mph 1015.1mb 51f 60f
8:00am 2 6 mph 1015.1mb 51f 60f
7:36am 2 5 mph 1015.1mb 51f 60f
7:30am 3 10 mph 1015mb 51f 60f
7:24am 2 7 mph 1015mb 51f 60f
7:18am 1 6 mph 1014.9mb 51f 60f
7:12am 2 5 mph 1014.9mb 51f 58f
7:06am 2 5 mph 1014.9mb 51f 58f
7:00am 2 6 mph 1014.9mb 51f 58f
6:36am  -  5 mph 1014.9mb 51f 58f
6:30am 3 6 mph 1014.8mb 51f 58f
6:24am 2 3 mph 1014.8mb 51f 58f
6:18am 2 6 mph 1014.8mb 51f 58f
6:12am 2 5 mph 1014.7mb 51f 58f
6:06am 1 3 mph 1014.7mb 51f 58f
6:00am 1 5 mph 1014.7mb 51f 58f
5:36am 1 3 mph 1014.3mb 51f 56f
5:30am 2 3 mph 1014.3mb 51f 56f
5:24am 1 5 mph 1014.3mb 51f 56f
5:18am 1 3 mph 1014.3mb 51f 56f
5:12am 2 6 mph 1014.2mb 51f 56f
5:06am 2 5 mph 1014.1mb 51f 56f
5:00am  -  5 mph 1014.1mb 51f 56f
4:36am 1 6 mph 1013.9mb 51f 56f
4:30am 2 5 mph 1013.9mb 51f 56f
4:24am 1 5 mph 1013.9mb 51f 56f
4:18am 2 6 mph 1013.9mb 51f 56f
4:12am 2 7 mph 1013.8mb 51f 57f
4:06am 1 5 mph 1013.8mb 51f 57f
4:00am 1 5 mph 1013.8mb 51f 57f
3:36am  -  6 mph 1013.9mb 51f 57f
3:30am 2 6 mph 1013.8mb 51f 57f
3:24am 1 6 mph 1013.8mb 51f 57f
3:18am 2 7 mph 1013.8mb 51f 57f
3:12am 1 5 mph 1013.8mb 51f 57f
3:06am 2 6 mph 1013.7mb 51f 57f
3:00am 1 3 mph 1013.7mb 51f 57f
2:36am 1 3 mph 1013.7mb 51f 57f
2:30am 2 5 mph 1013.7mb 51f 57f
2:24am  -  3 mph 1013.8mb 51f 58f
2:18am  -  3 mph 1013.8mb 51f 58f
2:12am 2 3 mph 1013.8mb 51f 58f
2:06am 2 6 mph 1013.9mb 51f 58f
2:00am 2 5 mph 1014mb 51f 58f
1:36am 2 6 mph 1013.7mb 51f 58f
1:30am  -  8 mph 1013.7mb 51f 58f
1:24am 7 9 mph 1013.7mb 51f 58f
1:18am 2 6 mph 1013.5mb 51f 58f
1:12am 1 5 mph 1013.4mb 51f 58f
1:06am 1 5 mph 1013.4mb 51f 57f
1:00am 3 8 mph 1013.4mb 51f 57f
12:36am  -  3 mph 1013.2mb 51f 55f
12:30am  -  2 mph 1013.2mb 51f 54f
12:24am  -  1 mph 1013.1mb 51f 54f
12:18am  -  1 mph 1013.2mb 51f 53f
12:12am  -  2 mph 1013.2mb 51f 53f
12:06am 2 2 mph 1013.2mb 51f 53f
12:00am 1 2 mph 1013.1mb 51f 53f
Fri 06/15 11:36pm 2 3 mph 1013mb 51f 54f
11:30pm 2 2 mph 1013mb 51f 54f
11:24pm 2 2 mph 1013.1mb 51f 54f
11:18pm  -  1 mph 1013.1mb 51f 53f
11:12pm 1 2 mph 1013mb 51f 53f
11:06pm 1 1 mph 1013.1mb 51f 53f
11:00pm  -  2 mph 1013.1mb 51f 53f
10:36pm 2 3 mph 1013mb 51f 53f
10:30pm 2 3 mph 1012.9mb 51f 53f
10:24pm 1 3 mph 1012.8mb 51f 53f
10:18pm 1 2 mph 1012.8mb 51f 54f
10:12pm 3 5 mph 1012.7mb 51f 54f
10:06pm 1 2 mph 1012.6mb 51f 54f
10:00pm  -  2 mph 1012.6mb 51f 54f
9:36pm 2 3 mph 1012.7mb 51f 54f
9:30pm 2 3 mph 1012.6mb 51f 54f
9:24pm 2 5 mph 1012.6mb 51f 54f
9:18pm 3 6 mph 1012.6mb 51f 54f
9:12pm 5 6 mph 1012.5mb 51f 54f
9:06pm 3 3 mph 1012.5mb 51f 54f
9:00pm 3 6 mph 1012.4mb 51f 54f
8:36pm  -  5 mph 1012.4mb 51f 55f
8:30pm 3 6 mph 1012.4mb 51f 55f
8:24pm 5 7 mph 1012.5mb 51f 55f
8:18pm 6 7 mph 1012.5mb 51f 56f
8:12pm 1 3 mph 1012.5mb 51f 56f
8:06pm 2 3 mph 1012.6mb 51f 56f
8:00pm 5 6 mph 1012.6mb 51f 56f
7:36pm 3 6 mph 1012.7mb 51f 58f
7:30pm 3 6 mph 1012.6mb 51f 58f
7:24pm 2 7 mph 1012.6mb 51f 59f
7:18pm 7 9 mph 1012.6mb 51f 60f
7:12pm 9 10 mph 1012.6mb 51f 60f
7:06pm 9 9 mph 1012.6mb 51f 61f
7:00pm 8 9 mph 1012.6mb 51f 61f
6:36pm 5 6 mph 1012.7mb 51f 62f
6:30pm 3 6 mph 1012.7mb 51f 62f
6:24pm 6 8 mph 1012.8mb 51f 61f
6:18pm 5 9 mph 1012.8mb 51f 62f
6:12pm 8 11 mph 1012.9mb 51f 62f
6:06pm 10 14 mph 1013mb 51f 62f
6:00pm 15 18 mph 1013mb 51f 61f
5:36pm 14 17 mph 1013.2mb 51f 62f
5:30pm 14 18 mph 1013.2mb 51f 61f
5:24pm 15 17 mph 1013.2mb 51f 61f
5:18pm 15 16 mph 1013.3mb 51f 61f
5:12pm 14 16 mph 1013.3mb 51f 61f
5:06pm 15 17 mph 1013.4mb 51f 61f
5:00pm 14 16 mph 1013.5mb 51f 62f
4:36pm 14 15 mph 1013.7mb 51f 63f
4:30pm 14 18 mph 1013.7mb 51f 63f
4:24pm 17 20 mph 1013.8mb 51f 63f
4:18pm 13 16 mph 1013.8mb 51f 63f
4:12pm 11 17 mph 1013.8mb 51f 63f
4:06pm 13 15 mph 1013.9mb 51f 63f
4:00pm 2 7 mph 1013.9mb 51f 62f
3:36pm 5 6 mph 1014.1mb 51f 58f
3:30pm 5 6 mph 1014.1mb 51f 60f
3:24pm 5 6 mph 1014.2mb 51f 61f
3:18pm 6 6 mph 1014.3mb 52f 60f
3:12pm 6 7 mph 1014.3mb 52f 61f
3:06pm 5 6 mph 1014.4mb 51f 61f
3:00pm 5 6 mph 1014.5mb 51f 61f
2:36pm 1 3 mph 1014.8mb 51f 62f
2:30pm 3 6 mph 1014.9mb 51f 61f
2:24pm 5 6 mph 1014.8mb 51f 61f
2:18pm 6 8 mph 1014.8mb 51f 61f
2:12pm 7 10 mph 1014.9mb 51f 60f
2:06pm 8 9 mph 1014.9mb 51f 60f
2:00pm 8 10 mph 1015mb 51f 60f
1:36pm 3 6 mph 1015.1mb 51f 60f
1:30pm 2 3 mph 1015.2mb 51f 60f
1:24pm 1 3 mph 1015.2mb 51f 60f
1:18pm  -  6 mph 1015.2mb 51f 61f
1:12pm 7 14 mph 1015.2mb 51f 60f
1:06pm 11 15 mph 1015.2mb 51f 61f
1:00pm 13 16 mph 1015.2mb 51f 61f
12:36pm  -  mph 1015.3mb 51f -
12:30pm 9 10 mph 1015.4mb 51f 60f
12:24pm 9 10 mph 1015.3mb 51f 60f
12:18pm 9 11 mph 1015.4mb 51f 60f
12:12pm 10 13 mph 1015.4mb 51f 60f
12:06pm 9 11 mph 1015.5mb 51f 60f
12:00pm 10 13 mph 1015.4mb 52f 60f
11:36am 7 10 mph 1015.5mb 51f 60f
11:30am 7 10 mph 1015.5mb 51f 60f
11:24am 3 9 mph 1015.5mb 51f 60f
11:18am 3 10 mph 1015.5mb 51f 60f
11:12am 7 9 mph 1015.5mb 51f 60f
11:06am 5 11 mph 1015.6mb 51f 60f
11:00am 7 13 mph 1015.6mb 51f 60f
10:36am 2 13 mph 1015.5mb 51f 60f
10:30am 9 15 mph 1015.5mb 51f 59f
10:24am 9 13 mph 1015.5mb 51f 59f
10:18am 9 11 mph 1015.5mb 51f 58f
10:12am 7 11 mph 1015.6mb 51f 58f
10:06am 7 9 mph 1015.6mb 51f 58f
10:00am 8 9 mph 1015.6mb 51f 57f
9:36am 5 6 mph 1015.7mb 51f 58f
9:30am 3 5 mph 1015.8mb 51f 58f
9:24am 1 3 mph 1015.8mb 51f 58f
9:18am 2 8 mph 1015.8mb 51f 57f
9:12am 3 7 mph 1015.8mb 51f 56f
9:06am 5 7 mph 1015.7mb 51f 56f
9:00am 6 7 mph 1015.7mb 51f 56f
8:36am  -  2 mph 1015.7mb 51f 53f
8:30am 1 2 mph 1015.7mb 51f 53f
8:24am 2 2 mph 1015.7mb 51f 54f
8:18am 2 2 mph 1015.7mb 51f 54f
8:12am 1 2 mph 1015.7mb 51f 53f
8:06am 2 2 mph 1015.7mb 51f 52f
8:00am 2 2 mph 1015.7mb 51f 52f
7:36am  -  2 mph 1015.6mb 51f 53f
7:30am 2 2 mph 1015.6mb 51f 52f
7:24am  -  1 mph 1015.6mb 51f 52f
7:18am 1 2 mph 1015.6mb 51f 52f
7:12am 2 2 mph 1015.5mb 51f 51f
7:06am  -  2 mph 1015.5mb 51f 52f
7:00am  -  1 mph 1015.6mb 51f 52f
6:36am  -  1 mph 1015.5mb 51f 53f
6:30am  -  0 mph 1015.5mb 51f 54f
6:24am  -  1 mph 1015.4mb 51f 52f
6:18am  -  1 mph 1015.4mb 51f 51f
6:12am  -  1 mph 1015.3mb 51f 51f
6:06am  -  1 mph 1015.3mb 51f 50f
6:00am  -  0 mph 1015.3mb 51f 51f
5:36am  -  0 mph 1015.3mb 51f 50f
5:30am  -  0 mph 1015.3mb 51f 49f
5:24am  -  1 mph 1015.3mb 51f 48f
5:18am  -  1 mph 1015.4mb 51f 48f
5:12am  -  0 mph 1015.4mb 51f 48f
5:06am  -  1 mph 1015.4mb 51f 47f
5:00am  -  1 mph 1015.4mb 51f 47f